sensor_id;sensor_type;location;lat;lon;timestamp;pressure;altitude;pressure_sealevel;temperature;humidity
59409;BME280;45213;32.654;-115.458;2023-03-04T00:02:08;101181.00;;;22.68;24.39
59409;BME280;45213;32.654;-115.458;2023-03-04T00:04:34;101181.63;;;22.49;25.54
59409;BME280;45213;32.654;-115.458;2023-03-04T00:07:01;101177.47;;;22.67;24.73
59409;BME280;45213;32.654;-115.458;2023-03-04T00:09:27;101174.78;;;22.69;24.80
59409;BME280;45213;32.654;-115.458;2023-03-04T00:11:54;101169.84;;;22.58;24.32
59409;BME280;45213;32.654;-115.458;2023-03-04T00:14:20;101165.59;;;22.78;25.04
59409;BME280;45213;32.654;-115.458;2023-03-04T00:16:47;101172.88;;;22.72;23.97
59409;BME280;45213;32.654;-115.458;2023-03-04T00:19:14;101170.81;;;22.56;24.79
59409;BME280;45213;32.654;-115.458;2023-03-04T00:21:40;101171.03;;;22.49;24.35
59409;BME280;45213;32.654;-115.458;2023-03-04T00:24:07;101173.72;;;22.48;24.10
59409;BME280;45213;32.654;-115.458;2023-03-04T00:26:34;101177.69;;;22.08;24.88
59409;BME280;45213;32.654;-115.458;2023-03-04T00:29:00;101178.91;;;21.69;25.85
59409;BME280;45213;32.654;-115.458;2023-03-04T00:31:27;101178.47;;;21.83;26.22
59409;BME280;45213;32.654;-115.458;2023-03-04T00:33:53;101183.09;;;21.77;25.54
59409;BME280;45213;32.654;-115.458;2023-03-04T00:36:20;101187.47;;;21.78;25.66
59409;BME280;45213;32.654;-115.458;2023-03-04T00:38:47;101191.53;;;21.61;25.06
59409;BME280;45213;32.654;-115.458;2023-03-04T00:41:13;101190.91;;;21.53;25.43
59409;BME280;45213;32.654;-115.458;2023-03-04T00:43:40;101182.34;;;21.43;26.01
59409;BME280;45213;32.654;-115.458;2023-03-04T00:46:07;101182.56;;;21.34;26.23
59409;BME280;45213;32.654;-115.458;2023-03-04T00:48:34;101186.97;;;21.35;26.51
59409;BME280;45213;32.654;-115.458;2023-03-04T00:51:01;101187.53;;;21.17;26.48
59409;BME280;45213;32.654;-115.458;2023-03-04T00:53:27;101183.25;;;21.11;27.22
59409;BME280;45213;32.654;-115.458;2023-03-04T00:55:54;101191.59;;;20.97;26.98
59409;BME280;45213;32.654;-115.458;2023-03-04T00:58:20;101194.50;;;20.88;27.32
59409;BME280;45213;32.654;-115.458;2023-03-04T01:00:47;101194.03;;;20.72;26.22
59409;BME280;45213;32.654;-115.458;2023-03-04T01:03:13;101194.16;;;20.68;26.56
59409;BME280;45213;32.654;-115.458;2023-03-04T01:05:40;101198.72;;;20.62;27.00
59409;BME280;45213;32.654;-115.458;2023-03-04T01:08:06;101196.22;;;20.56;26.58
59409;BME280;45213;32.654;-115.458;2023-03-04T01:10:33;101196.28;;;20.52;27.55
59409;BME280;45213;32.654;-115.458;2023-03-04T01:12:59;101204.44;;;20.44;27.46
59409;BME280;45213;32.654;-115.458;2023-03-04T01:15:26;101202.16;;;20.29;27.40
59409;BME280;45213;32.654;-115.458;2023-03-04T01:17:53;101205.72;;;20.28;27.87
59409;BME280;45213;32.654;-115.458;2023-03-04T01:20:20;101203.00;;;20.31;28.08
59409;BME280;45213;32.654;-115.458;2023-03-04T01:22:46;101213.19;;;20.10;28.99
59409;BME280;45213;32.654;-115.458;2023-03-04T01:25:13;101221.56;;;19.92;29.57
59409;BME280;45213;32.654;-115.458;2023-03-04T01:27:40;101224.19;;;19.92;28.99
59409;BME280;45213;32.654;-115.458;2023-03-04T01:30:07;101217.16;;;19.91;28.99
59409;BME280;45213;32.654;-115.458;2023-03-04T01:32:34;101223.31;;;19.91;28.87
59409;BME280;45213;32.654;-115.458;2023-03-04T01:35:00;101227.94;;;19.81;29.08
59409;BME280;45213;32.654;-115.458;2023-03-04T01:37:29;101228.97;;;19.74;29.42
59409;BME280;45213;32.654;-115.458;2023-03-04T01:39:55;101235.31;;;19.64;29.80
59409;BME280;45213;32.654;-115.458;2023-03-04T01:42:23;101227.56;;;19.58;30.27
59409;BME280;45213;32.654;-115.458;2023-03-04T01:44:52;101231.06;;;19.57;30.58
59409;BME280;45213;32.654;-115.458;2023-03-04T01:47:19;101223.34;;;19.48;31.24
59409;BME280;45213;32.654;-115.458;2023-03-04T01:49:52;101224.47;;;19.37;31.30
59409;BME280;45213;32.654;-115.458;2023-03-04T01:52:19;101228.25;;;19.23;32.38
59409;BME280;45213;32.654;-115.458;2023-03-04T01:54:47;101233.91;;;19.04;32.90
59409;BME280;45213;32.654;-115.458;2023-03-04T01:57:23;101228.94;;;18.87;33.07
59409;BME280;45213;32.654;-115.458;2023-03-04T02:00:17;101234.31;;;18.81;34.14
59409;BME280;45213;32.654;-115.458;2023-03-04T02:02:50;101237.03;;;18.75;33.02
59409;BME280;45213;32.654;-115.458;2023-03-04T02:05:17;101236.19;;;18.73;33.62
59409;BME280;45213;32.654;-115.458;2023-03-04T02:07:44;101241.53;;;18.70;33.19
59409;BME280;45213;32.654;-115.458;2023-03-04T02:10:11;101240.00;;;18.56;33.61
59409;BME280;45213;32.654;-115.458;2023-03-04T02:12:38;101241.88;;;18.48;35.18
59409;BME280;45213;32.654;-115.458;2023-03-04T02:15:06;101249.09;;;18.37;34.31
59409;BME280;45213;32.654;-115.458;2023-03-04T02:17:33;101249.16;;;18.32;34.77
59409;BME280;45213;32.654;-115.458;2023-03-04T02:20:15;101259.00;;;18.21;34.24
59409;BME280;45213;32.654;-115.458;2023-03-04T02:22:59;101255.63;;;18.14;34.06
59409;BME280;45213;32.654;-115.458;2023-03-04T02:25:32;101259.91;;;18.22;34.39
59409;BME280;45213;32.654;-115.458;2023-03-04T02:28:01;101253.72;;;18.23;33.64
59409;BME280;45213;32.654;-115.458;2023-03-04T02:30:27;101254.56;;;18.25;33.66
59409;BME280;45213;32.654;-115.458;2023-03-04T02:32:54;101259.03;;;18.20;34.74
59409;BME280;45213;32.654;-115.458;2023-03-04T02:35:21;101260.91;;;18.13;34.42
59409;BME280;45213;32.654;-115.458;2023-03-04T02:37:48;101267.28;;;17.97;35.54
59409;BME280;45213;32.654;-115.458;2023-03-04T02:40:28;101262.09;;;17.89;35.94
59409;BME280;45213;32.654;-115.458;2023-03-04T02:42:58;101265.72;;;17.82;35.52
59409;BME280;45213;32.654;-115.458;2023-03-04T02:45:47;101270.09;;;17.80;35.39
59409;BME280;45213;32.654;-115.458;2023-03-04T02:48:18;101270.09;;;17.83;35.42
59409;BME280;45213;32.654;-115.458;2023-03-04T02:50:52;101278.00;;;17.80;35.65
59409;BME280;45213;32.654;-115.458;2023-03-04T02:53:20;101277.16;;;17.78;35.07
59409;BME280;45213;32.654;-115.458;2023-03-04T02:55:47;101282.47;;;17.73;35.73
59409;BME280;45213;32.654;-115.458;2023-03-04T02:58:15;101286.13;;;17.63;36.94
59409;BME280;45213;32.654;-115.458;2023-03-04T03:00:41;101279.19;;;17.54;37.16
59409;BME280;45213;32.654;-115.458;2023-03-04T03:03:08;101275.72;;;17.50;36.11
59409;BME280;45213;32.654;-115.458;2023-03-04T03:05:36;101283.69;;;17.46;36.37
59409;BME280;45213;32.654;-115.458;2023-03-04T03:08:04;101276.75;;;17.39;36.34
59409;BME280;45213;32.654;-115.458;2023-03-04T03:10:31;101290.81;;;17.35;36.42
59409;BME280;45213;32.654;-115.458;2023-03-04T03:12:57;101285.66;;;17.25;36.02
59409;BME280;45213;32.654;-115.458;2023-03-04T03:15:24;101294.47;;;17.21;36.60
59409;BME280;45213;32.654;-115.458;2023-03-04T03:17:51;101285.75;;;17.16;37.68
59409;BME280;45213;32.654;-115.458;2023-03-04T03:20:18;101298.19;;;17.02;37.44
59409;BME280;45213;32.654;-115.458;2023-03-04T03:22:46;101298.22;;;16.99;38.08
59409;BME280;45213;32.654;-115.458;2023-03-04T03:25:14;101295.59;;;16.99;37.23
59409;BME280;45213;32.654;-115.458;2023-03-04T03:27:41;101295.59;;;16.96;38.38
59409;BME280;45213;32.654;-115.458;2023-03-04T03:30:11;101293.09;;;16.83;38.64
59409;BME280;45213;32.654;-115.458;2023-03-04T03:32:38;101298.38;;;16.79;38.90
59409;BME280;45213;32.654;-115.458;2023-03-04T03:35:06;101288.72;;;16.78;39.38
59409;BME280;45213;32.654;-115.458;2023-03-04T03:37:33;101287.88;;;16.74;39.33
59409;BME280;45213;32.654;-115.458;2023-03-04T03:40:00;101292.34;;;16.63;38.22
59409;BME280;45213;32.654;-115.458;2023-03-04T03:42:26;101294.09;;;16.65;39.08
59409;BME280;45213;32.654;-115.458;2023-03-04T03:44:53;101287.09;;;16.60;39.00
59409;BME280;45213;32.654;-115.458;2023-03-04T03:47:22;101296.78;;;16.53;38.59
59409;BME280;45213;32.654;-115.458;2023-03-04T03:49:49;101290.69;;;16.48;38.91
59409;BME280;45213;32.654;-115.458;2023-03-04T03:52:15;101296.00;;;16.45;38.42
59409;BME280;45213;32.654;-115.458;2023-03-04T03:54:42;101294.22;;;16.44;39.15
59409;BME280;45213;32.654;-115.458;2023-03-04T03:57:08;101290.78;;;16.40;39.42
59409;BME280;45213;32.654;-115.458;2023-03-04T03:59:35;101288.19;;;16.29;39.22
59409;BME280;45213;32.654;-115.458;2023-03-04T04:02:01;101286.50;;;16.24;39.22
59409;BME280;45213;32.654;-115.458;2023-03-04T04:04:28;101285.59;;;16.23;38.95
59409;BME280;45213;32.654;-115.458;2023-03-04T04:06:54;101293.53;;;16.22;40.05
59409;BME280;45213;32.654;-115.458;2023-03-04T04:09:21;101301.38;;;16.23;39.22
59409;BME280;45213;32.654;-115.458;2023-03-04T04:11:47;101295.25;;;16.23;38.91
59409;BME280;45213;32.654;-115.458;2023-03-04T04:14:14;101298.69;;;16.33;38.70
59409;BME280;45213;32.654;-115.458;2023-03-04T04:16:40;101298.69;;;16.34;38.93
59409;BME280;45213;32.654;-115.458;2023-03-04T04:19:13;101306.63;;;16.25;39.40
59409;BME280;45213;32.654;-115.458;2023-03-04T04:21:41;101311.06;;;16.20;39.25
59409;BME280;45213;32.654;-115.458;2023-03-04T04:24:08;101318.09;;;16.12;41.31
59409;BME280;45213;32.654;-115.458;2023-03-04T04:26:34;101318.13;;;16.07;40.74
59409;BME280;45213;32.654;-115.458;2023-03-04T04:29:01;101324.25;;;16.04;40.27
59409;BME280;45213;32.654;-115.458;2023-03-04T04:31:28;101319.00;;;16.04;41.61
59409;BME280;45213;32.654;-115.458;2023-03-04T04:33:54;101314.72;;;15.88;41.47
59409;BME280;45213;32.654;-115.458;2023-03-04T04:36:21;101319.97;;;15.88;40.43
59409;BME280;45213;32.654;-115.458;2023-03-04T04:38:47;101319.09;;;15.88;40.95
59409;BME280;45213;32.654;-115.458;2023-03-04T04:41:38;101334.91;;;15.78;42.08
59409;BME280;45213;32.654;-115.458;2023-03-04T04:44:05;101335.75;;;15.76;40.95
59409;BME280;45213;32.654;-115.458;2023-03-04T04:46:32;101337.53;;;15.74;42.02
59409;BME280;45213;32.654;-115.458;2023-03-04T04:48:59;101342.78;;;15.77;40.47
59409;BME280;45213;32.654;-115.458;2023-03-04T04:51:25;101352.38;;;15.81;40.50
59409;BME280;45213;32.654;-115.458;2023-03-04T04:53:52;101349.78;;;15.75;41.80
59409;BME280;45213;32.654;-115.458;2023-03-04T04:56:21;101349.78;;;15.75;40.81
59409;BME280;45213;32.654;-115.458;2023-03-04T04:58:49;101346.25;;;15.70;40.92
59409;BME280;45213;32.654;-115.458;2023-03-04T05:01:16;101346.25;;;15.70;40.72
59409;BME280;45213;32.654;-115.458;2023-03-04T05:03:42;101342.78;;;15.61;40.84
59409;BME280;45213;32.654;-115.458;2023-03-04T05:06:10;101346.28;;;15.63;41.86
59409;BME280;45213;32.654;-115.458;2023-03-04T05:08:37;101348.94;;;15.56;41.54
59409;BME280;45213;32.654;-115.458;2023-03-04T05:11:05;101351.56;;;15.51;42.44
59409;BME280;45213;32.654;-115.458;2023-03-04T05:13:32;101355.94;;;15.41;41.17
59409;BME280;45213;32.654;-115.458;2023-03-04T05:15:58;101355.09;;;15.32;41.38
59409;BME280;45213;32.654;-115.458;2023-03-04T05:18:26;101364.69;;;15.34;41.86
59409;BME280;45213;32.654;-115.458;2023-03-04T05:21:02;101369.97;;;15.36;42.48
59409;BME280;45213;32.654;-115.458;2023-03-04T05:23:31;101369.09;;;15.28;42.52
59409;BME280;45213;32.654;-115.458;2023-03-04T05:25:58;101363.84;;;15.24;43.24
59409;BME280;45213;32.654;-115.458;2023-03-04T05:28:25;101362.97;;;15.25;43.13
59409;BME280;45213;32.654;-115.458;2023-03-04T05:30:51;101357.72;;;15.18;42.74
59409;BME280;45213;32.654;-115.458;2023-03-04T05:33:18;101370.00;;;15.13;43.67
59409;BME280;45213;32.654;-115.458;2023-03-04T05:35:45;101367.34;;;15.05;43.93
59409;BME280;45213;32.654;-115.458;2023-03-04T05:38:15;101373.47;;;15.04;45.08
59409;BME280;45213;32.654;-115.458;2023-03-04T05:40:43;101370.84;;;15.01;44.79
59409;BME280;45213;32.654;-115.458;2023-03-04T05:43:11;101370.84;;;14.95;43.76
59409;BME280;45213;32.654;-115.458;2023-03-04T05:45:37;101369.09;;;14.94;44.34
59409;BME280;45213;32.654;-115.458;2023-03-04T05:48:05;101372.59;;;14.96;45.08
59409;BME280;45213;32.654;-115.458;2023-03-04T05:50:32;101384.81;;;14.94;43.73
59409;BME280;45213;32.654;-115.458;2023-03-04T05:52:59;101380.47;;;14.91;44.07
59409;BME280;45213;32.654;-115.458;2023-03-04T05:55:26;101383.06;;;14.82;44.26
59409;BME280;45213;32.654;-115.458;2023-03-04T05:57:55;101380.47;;;14.83;45.60
59409;BME280;45213;32.654;-115.458;2023-03-04T06:00:22;101372.59;;;14.77;44.75
59409;BME280;45213;32.654;-115.458;2023-03-04T06:02:49;101374.34;;;14.74;44.60
59409;BME280;45213;32.654;-115.458;2023-03-04T06:05:16;101366.44;;;14.69;44.88
59409;BME280;45213;32.654;-115.458;2023-03-04T06:07:43;101375.19;;;14.71;44.87
59409;BME280;45213;32.654;-115.458;2023-03-04T06:10:12;101370.84;;;14.67;45.06
59409;BME280;45213;32.654;-115.458;2023-03-04T06:12:39;101374.28;;;14.60;44.51
59409;BME280;45213;32.654;-115.458;2023-03-04T06:15:06;101369.00;;;14.51;45.15
59409;BME280;45213;32.654;-115.458;2023-03-04T06:17:35;101367.25;;;14.44;45.03
59409;BME280;45213;32.654;-115.458;2023-03-04T06:20:02;101365.50;;;14.46;46.07
59409;BME280;45213;32.654;-115.458;2023-03-04T06:22:32;101363.72;;;14.37;46.34
59409;BME280;45213;32.654;-115.458;2023-03-04T06:25:00;101362.88;;;14.33;47.04
59409;BME280;45213;32.654;-115.458;2023-03-04T06:27:27;101355.00;;;14.32;46.75
59409;BME280;45213;32.654;-115.458;2023-03-04T06:29:53;101356.75;;;14.31;46.08
59409;BME280;45213;32.654;-115.458;2023-03-04T06:32:20;101360.22;;;14.27;46.35
59409;BME280;45213;32.654;-115.458;2023-03-04T06:34:46;101351.47;;;14.22;47.23
59409;BME280;45213;32.654;-115.458;2023-03-04T06:37:13;101351.44;;;14.10;46.20
59409;BME280;45213;32.654;-115.458;2023-03-04T06:39:40;101356.66;;;14.07;47.47
59409;BME280;45213;32.654;-115.458;2023-03-04T06:42:06;101354.91;;;14.03;46.51
59409;BME280;45213;32.654;-115.458;2023-03-04T06:44:33;101359.25;;;14.05;47.22
59409;BME280;45213;32.654;-115.458;2023-03-04T06:46:59;101353.16;;;14.00;46.52
59409;BME280;45213;32.654;-115.458;2023-03-04T06:49:26;101359.25;;;13.99;46.76
59409;BME280;45213;32.654;-115.458;2023-03-04T06:51:52;101356.63;;;14.00;47.07
59409;BME280;45213;32.654;-115.458;2023-03-04T06:54:19;101357.50;;;13.95;46.61
59409;BME280;45213;32.654;-115.458;2023-03-04T06:56:45;101358.34;;;13.92;46.78
59409;BME280;45213;32.654;-115.458;2023-03-04T06:59:12;101357.47;;;13.90;47.49
59409;BME280;45213;32.654;-115.458;2023-03-04T07:01:39;101360.09;;;13.90;48.94
59409;BME280;45213;32.654;-115.458;2023-03-04T07:04:05;101355.69;;;13.85;47.52
59409;BME280;45213;32.654;-115.458;2023-03-04T07:06:32;101359.19;;;13.84;47.54
59409;BME280;45213;32.654;-115.458;2023-03-04T07:08:59;101359.16;;;13.82;47.56
59409;BME280;45213;32.654;-115.458;2023-03-04T07:11:26;101356.50;;;13.70;47.34
59409;BME280;45213;32.654;-115.458;2023-03-04T07:13:52;101360.84;;;13.69;48.59
59409;BME280;45213;32.654;-115.458;2023-03-04T07:16:21;101360.81;;;13.63;48.92
59409;BME280;45213;32.654;-115.458;2023-03-04T07:18:48;101362.53;;;13.60;48.77
59409;BME280;45213;32.654;-115.458;2023-03-04T07:21:16;101361.66;;;13.54;49.18
59409;BME280;45213;32.654;-115.458;2023-03-04T07:23:43;101363.38;;;13.52;48.19
59409;BME280;45213;32.654;-115.458;2023-03-04T07:26:10;101368.59;;;13.52;48.96
59409;BME280;45213;32.654;-115.458;2023-03-04T07:28:37;101371.19;;;13.51;48.85
59409;BME280;45213;32.654;-115.458;2023-03-04T07:31:31;101365.03;;;13.41;48.89
59409;BME280;45213;32.654;-115.458;2023-03-04T07:34:04;101363.31;;;13.43;49.36
59409;BME280;45213;32.654;-115.458;2023-03-04T07:36:32;101372.88;;;13.40;49.77
59409;BME280;45213;32.654;-115.458;2023-03-04T07:38:59;101371.13;;;13.37;50.84
59409;BME280;45213;32.654;-115.458;2023-03-04T07:41:27;101364.13;;;13.31;49.93
59409;BME280;45213;32.654;-115.458;2023-03-04T07:43:58;101365.81;;;13.28;50.93
59409;BME280;45213;32.654;-115.458;2023-03-04T07:46:25;101368.38;;;13.25;51.37
59409;BME280;45213;32.654;-115.458;2023-03-04T07:48:52;101374.47;;;13.22;50.90
59409;BME280;45213;32.654;-115.458;2023-03-04T07:51:21;101375.34;;;13.23;49.76
59409;BME280;45213;32.654;-115.458;2023-03-04T07:53:50;101368.38;;;13.22;49.94
59409;BME280;45213;32.654;-115.458;2023-03-04T07:56:19;101373.50;;;13.12;50.15
59409;BME280;45213;32.654;-115.458;2023-03-04T07:58:47;101371.78;;;13.11;49.87
59409;BME280;45213;32.654;-115.458;2023-03-04T08:01:17;101371.78;;;13.11;49.43
59409;BME280;45213;32.654;-115.458;2023-03-04T08:03:43;101376.22;;;13.23;49.78
59409;BME280;45213;32.654;-115.458;2023-03-04T08:06:12;101374.47;;;13.22;49.78
59409;BME280;45213;32.654;-115.458;2023-03-04T08:08:39;101381.41;;;13.15;49.91
59409;BME280;45213;32.654;-115.458;2023-03-04T08:11:17;101385.75;;;13.13;50.64
59409;BME280;45213;32.654;-115.458;2023-03-04T08:13:45;101387.41;;;13.05;49.70
59409;BME280;45213;32.654;-115.458;2023-03-04T08:16:13;101388.34;;;13.13;50.17
59409;BME280;45213;32.654;-115.458;2023-03-04T08:18:45;101384.88;;;13.16;48.53
59409;BME280;45213;32.654;-115.458;2023-03-04T08:21:14;101376.97;;;13.07;50.19
59409;BME280;45213;32.654;-115.458;2023-03-04T08:23:41;101369.03;;;12.98;51.25
59409;BME280;45213;32.654;-115.458;2023-03-04T08:26:31;101366.41;;;12.96;51.72
59409;BME280;45213;32.654;-115.458;2023-03-04T08:28:56;101376.84;;;12.90;51.92
59409;BME280;45213;32.654;-115.458;2023-03-04T08:31:23;101370.63;;;12.80;51.86
59409;BME280;45213;32.654;-115.458;2023-03-04T08:33:50;101369.66;;;12.70;51.25
59409;BME280;45213;32.654;-115.458;2023-03-04T08:36:18;101358.31;;;12.65;52.37
59409;BME280;45213;32.654;-115.458;2023-03-04T08:38:45;101368.75;;;12.67;52.37
59409;BME280;45213;32.654;-115.458;2023-03-04T08:41:11;101369.66;;;12.67;52.33
59409;BME280;45213;32.654;-115.458;2023-03-04T08:43:38;101368.69;;;12.59;51.70
59409;BME280;45213;32.654;-115.458;2023-03-04T08:46:05;101367.81;;;12.60;53.13
59409;BME280;45213;32.654;-115.458;2023-03-04T08:48:32;101379.97;;;12.55;52.64
59409;BME280;45213;32.654;-115.458;2023-03-04T08:50:59;101384.25;;;12.48;52.70
59409;BME280;45213;32.654;-115.458;2023-03-04T08:53:25;101387.75;;;12.50;52.41
59409;BME280;45213;32.654;-115.458;2023-03-04T08:55:52;101386.88;;;12.50;52.81
59409;BME280;45213;32.654;-115.458;2023-03-04T08:58:19;101379.94;;;12.52;53.78
59409;BME280;45213;32.654;-115.458;2023-03-04T09:00:47;101388.63;;;12.51;53.04
59409;BME280;45213;32.654;-115.458;2023-03-04T09:03:15;101385.97;;;12.46;52.77
59409;BME280;45213;32.654;-115.458;2023-03-04T09:05:43;101375.41;;;12.37;52.69
59409;BME280;45213;32.654;-115.458;2023-03-04T09:08:10;101384.06;;;12.33;53.53
59409;BME280;45213;32.654;-115.458;2023-03-04T09:10:37;101381.47;;;12.35;54.46
59409;BME280;45213;32.654;-115.458;2023-03-04T09:13:04;101388.38;;;12.26;54.19
59409;BME280;45213;32.654;-115.458;2023-03-04T09:15:32;101379.66;;;12.24;54.05
59409;BME280;45213;32.654;-115.458;2023-03-04T09:18:03;101378.72;;;12.21;52.99
59409;BME280;45213;32.654;-115.458;2023-03-04T09:20:31;101372.56;;;12.17;53.94
59409;BME280;45213;32.654;-115.458;2023-03-04T09:22:57;101372.44;;;12.05;53.16
59409;BME280;45213;32.654;-115.458;2023-03-04T09:25:24;101367.09;;;11.96;54.05
59409;BME280;45213;32.654;-115.458;2023-03-04T09:27:50;101365.41;;;12.01;54.38
59409;BME280;45213;32.654;-115.458;2023-03-04T09:30:17;101367.13;;;11.99;53.05
59409;BME280;45213;32.654;-115.458;2023-03-04T09:32:44;101363.59;;;11.94;52.90
59409;BME280;45213;32.654;-115.458;2023-03-04T09:35:10;101357.47;;;11.91;53.23
59409;BME280;45213;32.654;-115.458;2023-03-04T09:37:37;101352.41;;;12.02;53.61
59409;BME280;45213;32.654;-115.458;2023-03-04T09:40:05;101352.50;;;12.11;54.47
59409;BME280;45213;32.654;-115.458;2023-03-04T09:42:37;101348.16;;;12.12;54.15
59409;BME280;45213;32.654;-115.458;2023-03-04T09:45:10;101342.81;;;12.03;54.14
59409;BME280;45213;32.654;-115.458;2023-03-04T09:47:40;101332.34;;;12.01;53.70
59409;BME280;45213;32.654;-115.458;2023-03-04T09:50:09;101332.28;;;11.94;53.65
59409;BME280;45213;32.654;-115.458;2023-03-04T10:00:43;101329.50;;;11.81;54.92
59409;BME280;45213;32.654;-115.458;2023-03-04T10:03:17;101327.59;;;11.71;54.51
59409;BME280;45213;32.654;-115.458;2023-03-04T10:11:11;101313.34;;;11.43;56.39
59409;BME280;45213;32.654;-115.458;2023-03-04T10:16:20;101309.19;;;11.59;55.48
59409;BME280;45213;32.654;-115.458;2023-03-04T10:18:55;101303.13;;;11.58;55.62
59409;BME280;45213;32.654;-115.458;2023-03-04T10:21:31;101300.47;;;11.57;55.06
59409;BME280;45213;32.654;-115.458;2023-03-04T10:24:06;101301.28;;;11.53;55.47
59409;BME280;45213;32.654;-115.458;2023-03-04T10:26:37;101296.91;;;11.50;55.49
59409;BME280;45213;32.654;-115.458;2023-03-04T10:29:03;101288.16;;;11.46;56.17
59409;BME280;45213;32.654;-115.458;2023-03-04T10:31:36;101294.25;;;11.48;55.21
59409;BME280;45213;32.654;-115.458;2023-03-04T10:34:03;101304.00;;;11.62;55.39
59409;BME280;45213;32.654;-115.458;2023-03-04T10:39:01;101296.88;;;11.48;55.14
59409;BME280;45213;32.654;-115.458;2023-03-04T10:41:29;101297.81;;;11.52;55.06
59409;BME280;45213;32.654;-115.458;2023-03-04T10:44:00;101293.44;;;11.49;55.43
59409;BME280;45213;32.654;-115.458;2023-03-04T10:46:28;101293.22;;;11.34;56.04
59409;BME280;45213;32.654;-115.458;2023-03-04T10:48:55;101274.06;;;11.32;56.10
59409;BME280;45213;32.654;-115.458;2023-03-04T10:51:27;101292.88;;;11.11;56.62
59409;BME280;45213;32.654;-115.458;2023-03-04T10:54:07;101281.84;;;11.29;55.90
59409;BME280;45213;32.654;-115.458;2023-03-04T10:56:40;101277.53;;;11.31;55.97
59409;BME280;45213;32.654;-115.458;2023-03-04T11:02:19;101269.66;;;11.28;56.82
59409;BME280;45213;32.654;-115.458;2023-03-04T11:04:53;101273.88;;;11.18;56.44
59409;BME280;45213;32.654;-115.458;2023-03-04T11:07:25;101274.66;;;11.14;57.82
59409;BME280;45213;32.654;-115.458;2023-03-04T11:09:52;101276.34;;;11.09;57.36
59409;BME280;45213;32.654;-115.458;2023-03-04T11:12:20;101264.19;;;11.10;57.42
59409;BME280;45213;32.654;-115.458;2023-03-04T11:14:51;101257.94;;;10.98;57.56
59409;BME280;45213;32.654;-115.458;2023-03-04T11:17:38;101263.22;;;11.01;57.95
59409;BME280;45213;32.654;-115.458;2023-03-04T11:20:17;101265.81;;;11.01;58.13
59409;BME280;45213;32.654;-115.458;2023-03-04T11:22:51;101270.13;;;10.99;58.12
59409;BME280;45213;32.654;-115.458;2023-03-04T11:28:09;101271.00;;;11.00;58.52
59409;BME280;45213;32.654;-115.458;2023-03-04T11:30:49;101267.53;;;11.01;59.61
59409;BME280;45213;32.654;-115.458;2023-03-04T11:33:31;101268.34;;;10.98;59.20
59409;BME280;45213;32.654;-115.458;2023-03-04T11:38:49;101262.19;;;10.90;60.32
59409;BME280;45213;32.654;-115.458;2023-03-04T11:41:35;101256.94;;;10.89;61.28
59409;BME280;45213;32.654;-115.458;2023-03-04T11:44:06;101261.19;;;10.85;61.98
59409;BME280;45213;32.654;-115.458;2023-03-04T11:49:24;101262.78;;;10.75;62.96
59409;BME280;45213;32.654;-115.458;2023-03-04T11:57:31;101262.84;;;10.77;63.77
59409;BME280;45213;32.654;-115.458;2023-03-04T12:00:18;101260.13;;;10.71;63.83
59409;BME280;45213;32.654;-115.458;2023-03-04T12:03:14;101260.00;;;10.63;64.81
59409;BME280;45213;32.654;-115.458;2023-03-04T12:11:44;101266.84;;;10.58;65.06
59409;BME280;45213;32.654;-115.458;2023-03-04T12:14:53;101266.75;;;10.52;64.92
59409;BME280;45213;32.654;-115.458;2023-03-04T12:22:58;101258.78;;;10.42;65.99
59409;BME280;45213;32.654;-115.458;2023-03-04T12:44:58;101273.84;;;10.13;67.63
59409;BME280;45213;32.654;-115.458;2023-03-04T12:55:56;101277.88;;;9.97;67.24
59409;BME280;45213;32.654;-115.458;2023-03-04T12:58:26;101285.66;;;9.96;67.43
59409;BME280;45213;32.654;-115.458;2023-03-04T13:01:14;101288.25;;;9.96;67.86
59409;BME280;45213;32.654;-115.458;2023-03-04T13:03:52;101293.50;;;9.97;68.13
59409;BME280;45213;32.654;-115.458;2023-03-04T13:16:39;101298.53;;;9.90;68.26
59409;BME280;45213;32.654;-115.458;2023-03-04T13:19:41;101297.63;;;9.88;68.19
59409;BME280;45213;32.654;-115.458;2023-03-04T13:38:42;101300.75;;;9.70;70.45
59409;BME280;45213;32.654;-115.458;2023-03-04T13:41:15;101310.44;;;9.77;70.83
59409;BME280;45213;32.654;-115.458;2023-03-04T13:43:56;101307.66;;;9.69;71.14
59409;BME280;45213;32.654;-115.458;2023-03-04T13:56:34;101320.38;;;9.55;71.29
59409;BME280;45213;32.654;-115.458;2023-03-04T14:04:19;101323.00;;;9.57;70.34
59409;BME280;45213;32.654;-115.458;2023-03-04T14:06:48;101329.06;;;9.57;71.29
59409;BME280;45213;32.654;-115.458;2023-03-04T14:09:18;101323.06;;;9.58;72.58
59409;BME280;45213;32.654;-115.458;2023-03-04T14:11:50;101324.78;;;9.59;71.50
59409;BME280;45213;32.654;-115.458;2023-03-04T14:14:22;101316.03;;;9.56;71.85
59409;BME280;45213;32.654;-115.458;2023-03-04T14:16:55;101319.53;;;9.58;71.84
59409;BME280;45213;32.654;-115.458;2023-03-04T14:21:49;101310.06;;;9.60;73.60
59409;BME280;45213;32.654;-115.458;2023-03-04T14:24:19;101310.94;;;9.60;71.92
59409;BME280;45213;32.654;-115.458;2023-03-04T14:26:46;101310.78;;;9.53;71.94
59409;BME280;45213;32.654;-115.458;2023-03-04T14:29:28;101305.78;;;9.62;71.69
59409;BME280;45213;32.654;-115.458;2023-03-04T14:31:59;101304.97;;;9.65;71.79